• Join FlightAware (Why Join?)
  • Login
  • US Flag 
03:39PM EDT


 

Airport Tracker/Info


-or-


 

Live Flight TrackerFlight Track Log ✈ DAL1981 ✈ 30-Jul-2013 ✈ KSMF - KMSP

Flight Track Log - Related Links

Times and Time Zones

All times are in EDT time to prevent confusion due to time zone crossing. See the DAL1981 flight status page for this flight to view local times or setup timezone preferences in your user account.

Time Position Orientation Groundspeed Altitude Reporting Facility
EDT Latitude Longitude Course Direction KTS MPH feet Rate Location/Type
03:50PM 38.6667 -121.5667 78° East 156 180 1,400  Level Northern Cal TRACON
03:51PM 38.6333 -121.5167 130° Southeast 229 264 2,400 1,740 Climbing Northern Cal TRACON
03:52PM 38.5019 -121.2276 67° East  Level FlightAware Approximate
03:53PM 38.5412 -121.0609 76° East  Level FlightAware Approximate
03:53PM 38.6031 -121.3967 108° East 266 306 6,000  Level Oakland Center
03:54PM 38.5711 -120.8905 78° East  Level FlightAware Approximate
03:54PM 38.6133 -121.2900 83° East 285 328 8,700  Level Oakland Center
03:55PM 38.5995 -120.7196 78° East  Level FlightAware Approximate
03:55PM 38.6239 -121.1828 83° East 293 337 10,400  Level Oakland Center
03:56PM 38.6361 -121.0622 83° East 328 377 11,400 1,200 Climbing Oakland Center
03:57PM 38.6494 -120.9244 83° East 378 435 12,900 1,740 Climbing Oakland Center
03:58PM 38.6656 -120.7525 83° East 400 460 15,000 1,860 Climbing Oakland Center
03:59PM 38.6797 -120.6025 83° East 418 481 16,800 1,560 Climbing Oakland Center
04:00PM 38.6936 -120.4492 83° East 431 496 18,300 1,380 Climbing Oakland Center
04:01PM 38.7097 -120.2928 82° East 443 510 19,700 1,260 Climbing Oakland Center
04:02PM 38.7692 -120.1536 61° Northeast 463 533 20,900 1,140 Climbing Oakland Center
04:03PM 38.8764 -120.0481 37° Northeast 482 555 22,100 1,200 Climbing Oakland Center
04:04PM 39.0003 -119.9250 38° Northeast 496 571 23,400 1,200 Climbing Oakland Center
04:05PM 39.1114 -119.8125 38° Northeast 505 581 24,600 1,080 Climbing Oakland Center
04:06PM 39.2236 -119.6981 38° Northeast 512 589 25,600 780 Climbing Oakland Center
04:07PM 39.3381 -119.5822 38° Northeast 519 597 26,300 780 Climbing Oakland Center
04:08PM 39.4550 -119.4642 38° Northeast 527 606 27,300 1,200 Climbing Oakland Center
04:09PM 39.5706 -119.3442 39° Northeast 529 609 28,800 1,200 Climbing Oakland Center
04:10PM 39.6853 -119.2264 38° Northeast 523 602 29,800 960 Climbing Oakland Center
04:11PM 39.7997 -119.1078 39° Northeast 521 600 30,800 840 Climbing Oakland Center
04:12PM 39.9131 -118.9872 39° Northeast 523 602 31,600 780 Climbing Oakland Center
04:13PM 40.0103 -118.8425 49° Northeast 527 606 32,500 960 Climbing Oakland Center
04:14PM 40.0850 -118.6803 59° Northeast 522 601 33,600 1,080 Climbing Oakland Center
04:15PM 40.1519 -118.5203 61° Northeast 507 583 34,800 900 Climbing Oakland Center
04:16PM 40.2186 -118.3603 61° Northeast 500 575 35,500 600 Climbing Oakland Center
04:17PM 40.2864 -118.2008 61° Northeast 500 575 36,100 660 Climbing Oakland Center
04:18PM 40.3464 -118.0408 64° Northeast 500 575 36,700 420 Climbing Salt Lake Center
04:19PM 40.3975 -117.8822 67° East 494 568 36,900 120 Climbing Salt Lake Center
04:20PM 40.4503 -117.7208 67° East 500 575 37,000  Climbing Salt Lake Center
04:21PM 40.5117 -117.5275 67° East 511 588 37,000  Level Salt Lake Center
04:22PM 40.5667 -117.3597 67° East 518 596 37,000  Level Salt Lake Center
04:23PM 40.6311 -117.1572 67° East 529 609 37,000  Level Salt Lake Center
04:24PM 40.6864 -116.9825 67° East 533 613 37,000  Level Salt Lake Center
04:25PM 40.7403 -116.8083 68° East 533 613 37,000  Level Salt Lake Center
04:26PM 40.8028 -116.6039 68° East 533 613 37,000  Level Salt Lake Center
04:27PM 40.8572 -116.4300 67° East 534 615 37,000  Level Salt Lake Center
04:28PM 40.9197 -116.2267 68° East 534 615 37,000  Level Salt Lake Center
04:29PM 40.9733 -116.0522 68° East 535 616 37,000  Level Salt Lake Center
04:30PM 41.0256 -115.8769 68° East 534 615 37,000  Level Salt Lake Center
04:31PM 41.0869 -115.6744 68° East 532 612 37,000  Level Salt Lake Center
04:32PM 41.1394 -115.4992 68° East 533 613 37,000  Level Salt Lake Center
04:33PM 41.1978 -115.2947 69° East 532 612 37,000  Level Salt Lake Center
04:34PM 41.2494 -115.1203 68° East 531 611 37,000  Level Salt Lake Center
04:35PM 41.3097 -114.9153 69° East 534 615 37,000  Level Salt Lake Center
04:36PM 41.3556 -114.7544 69° East 533 613 37,000  Level Salt Lake Center
04:37PM 41.4192 -114.5331 69° East 534 615 37,000  Level Salt Lake Center
04:38PM 41.4717 -114.3500 69° East 531 611 37,000  Level Salt Lake Center
04:39PM 41.5244 -114.1653 69° East 534 615 37,000  Level Salt Lake Center
04:41PM 41.5767 -113.9797 69° East 534 615 37,000  Level Salt Lake Center
04:42PM 41.6278 -113.7944 70° East 532 612 37,000  Level Salt Lake Center
04:43PM 41.6794 -113.6094 69° East 531 611 37,000  Level Salt Lake Center
04:44PM 41.7306 -113.4236 70° East 533 613 37,000  Level Salt Lake Center
04:45PM 41.7917 -113.2000 70° East 534 615 37,000  Level Salt Lake Center
04:46PM 41.8419 -113.0147 70° East 532 612 37,000  Level Salt Lake Center
04:47PM 41.8928 -112.8269 70° East 534 615 37,000  Level Salt Lake Center
04:48PM 41.9425 -112.6397 70° East 534 615 37,000  Level Salt Lake Center
04:49PM 41.9922 -112.4517 70° East 533 613 37,000  Level Salt Lake Center
04:50PM 42.0414 -112.2633 71° East 532 612 37,000  Level Salt Lake Center
04:51PM 42.0906 -112.0750 71° East 533 613 37,000  Level Salt Lake Center
04:52PM 42.1386 -111.8858 71° East 534 615 37,000  Level Salt Lake Center
04:53PM 42.1961 -111.6617 71° East 528 608 37,000  Level Salt Lake Center
04:54PM 42.2442 -111.4739 71° East 529 609 37,000  Level Salt Lake Center
04:55PM 42.2917 -111.2864 71° East 528 608 37,000  Level Salt Lake Center
04:56PM 42.3386 -111.0969 71° East 531 611 37,000 9,060 Level Salt Lake Center
04:57PM 42.3878 -110.9050 71° East 529 609 55,600  Climbing Salt Lake Center
04:58PM 42.4522 -110.7331 63° Northeast 534 615 37,000 -9,000 Descending Salt Lake Center
04:59PM 42.5225 -110.5333 64° Northeast 528 608 37,000  Level Salt Lake Center
05:00PM 42.5775 -110.3581 67° East 529 609 37,000  Level Salt Lake Center
05:01PM 42.6356 -110.1492 69° East 529 609 37,000  Level Salt Lake Center
05:02PM 42.6792 -109.9697 72° East 525 604 37,000  Level Salt Lake Center
05:03PM 42.7289 -109.7581 72° East 525 604 37,000  Level Salt Lake Center
05:04PM 42.7722 -109.5756 72° East 529 609 37,000  Level Salt Lake Center
05:05PM 42.8206 -109.3708 72° East 516 594 37,000  Level Salt Lake Center
05:06PM 42.8539 -109.1925 76° East 510 587 37,000 -60 Level Salt Lake Center
05:07PM 42.8836 -109.0211 77° East 493 567 36,900  Descending Salt Lake Center
05:08PM 42.9214 -108.8219 75° East 486 559 37,000  Climbing Salt Lake Center
05:09PM 42.9517 -108.6444 77° East 499 574 37,000  Level Salt Lake Center
05:10PM 42.9894 -108.4325 76° East 511 588 37,000  Level Salt Lake Center
05:11PM 43.0208 -108.2519 77° East 512 589 37,000  Level Salt Lake Center
05:12PM 43.0564 -108.0403 77° East 512 589 37,000  Level Salt Lake Center
05:13PM 43.0772 -107.8597 81° East 506 582 37,000  Level Salt Lake Center
05:15PM 43.0750 -107.6442 91° East 508 585 37,000  Level Salt Lake Center
05:16PM 43.0725 -107.4592 91° East 509 586 37,000  Level Salt Lake Center
05:17PM 43.0683 -107.2669 92° East 511 588 37,100  Climbing Salt Lake Center
05:18PM 43.0678 -107.0508 90° East 510 587 37,000 -60 Descending Salt Lake Center
05:19PM 43.0661 -106.8639 91° East 514 592 37,000  Level Salt Lake Center
05:20PM 43.0644 -106.6458 91° East 514 592 37,000  Level Salt Lake Center
05:21PM 43.0628 -106.4606 91° East 510 587 37,000  Level Salt Lake Center
05:22PM 43.0594 -106.2444 91° East 511 588 37,000  Level Salt Lake Center
05:23PM 43.0575 -106.0586 91° East 511 588 37,000  Level Salt Lake Center
05:24PM 43.0583 -105.8714 90° East 514 592 37,000  Level Salt Lake Center
05:25PM 43.0714 -105.6164 86° East 522 601 37,100  Climbing Denver Center
05:26PM 43.0825 -105.3942 86° East 525 604 37,100 -60 Level Denver Center
05:27PM 43.0906 -105.2044 87° East 522 601 37,000 -60 Descending Denver Center
05:28PM 43.1036 -104.9833 85° East 521 600 37,000  Level Denver Center
05:29PM 43.1222 -104.7950 82° East 519 597 37,000  Level Denver Center
05:30PM 43.1458 -104.5450 83° East 518 596 37,000  Level Denver Center
05:31PM 43.1633 -104.3592 83° East 515 593 37,000  Level Denver Center
05:33PM 43.1828 -104.1464 83° East 509 586 37,000  Level Denver Center
05:34PM 43.1986 -103.9617 83° East 507 583 37,000  Level Denver Center
05:35PM 43.2081 -103.7447 87° East 508 585 37,000  Level Denver Center
05:36PM 43.2144 -103.5564 87° East 513 590 37,000  Level Denver Center
05:37PM 43.2225 -103.3364 87° East 516 594 37,000  Level Denver Center
05:38PM 43.2256 -103.1500 89° East 512 589 37,000  Level Denver Center
05:39PM 43.2214 -102.9314 91° East 514 592 37,000  Level Denver Center
05:40PM 43.2142 -102.7439 93° East 515 593 37,000  Level Denver Center
05:41PM 43.2075 -102.5250 92° East 516 594 37,000  Level Denver Center
05:42PM 43.2033 -102.3400 92° East 510 587 37,000  Level Denver Center
05:43PM 43.2008 -102.1231 91° East 509 586 37,000  Level Denver Center
05:44PM 43.2008 -101.9364 90° East 513 590 37,000  Level Denver Center
05:45PM 43.2017 -101.7356 90° East 512 589 37,000  Level Denver Center
05:46PM 43.2097 -101.5417 87° East 513 590 37,000  Level Denver Center
05:47PM 43.2389 -101.3550 78° East 503 579 37,000  Level Denver Center
05:48PM 43.2861 -101.1733 70° East 505 581 37,000  Level Denver Center
05:49PM 43.3458 -100.9597 69° East 501 577 37,000  Level Denver Center
05:50PM 43.3922 -100.7817 70° East 495 570 37,000 -60 Level Denver Center
05:51PM 43.4481 -100.5706 70° East 493 567 36,900  Descending Denver Center
05:52PM 43.5092 -100.4033 63° Northeast 493 567 37,000  Climbing Denver Center
05:53PM 43.5850 -100.2492 56° Northeast 489 563 37,000  Level Denver Center
05:54PM 43.6636 -100.0969 54° Northeast 489 563 37,000  Level Denver Center
05:55PM 43.7625 -99.9189 52° Northeast 489 563 37,000  Level Denver Center
05:57PM 43.8283 -99.7531 61° Northeast 509 586 37,000  Level Denver Center
05:58PM 43.9111 -99.4953 66° East 515 593 37,100  Climbing Minneapolis Center
05:59PM 43.9744 -99.2733 68° East 518 596 37,100 -60 Level Minneapolis Center
06:00PM 44.0092 -99.0794 76° East 521 600 37,000 -60 Descending Minneapolis Center
06:01PM 44.0333 -98.8828 80° East 519 597 37,000  Level Minneapolis Center
06:02PM 44.0614 -98.6864 79° East 520 598 37,000  Level Minneapolis Center
06:03PM 44.0906 -98.4564 80° East 521 600 37,000  Level Minneapolis Center
06:04PM 44.1150 -98.2581 80° East 521 600 37,100  Climbing Minneapolis Center
06:05PM 44.1397 -98.0622 80° East 517 595 37,000 -60 Descending Minneapolis Center
06:06PM 44.1644 -97.8697 80° East 509 586 37,000  Level Minneapolis Center
06:07PM 44.1878 -97.6789 80° East 504 580 37,000  Level Minneapolis Center
06:08PM 44.2108 -97.4900 80° East 498 573 37,000  Level Minneapolis Center
06:09PM 44.2372 -97.2653 81° East 491 565 37,000  Level Minneapolis Center
06:10PM 44.2581 -97.0775 81° East 490 564 37,000  Level Minneapolis Center
06:12PM 44.2794 -96.8906 81° East 489 563 37,000  Level Minneapolis Center
06:13PM 44.3019 -96.7031 80° East 490 564 37,000  Level Minneapolis Center
06:14PM 44.3236 -96.5092 81° East 502 578 37,000  Level Minneapolis Center
06:15PM 44.3461 -96.3103 81° East 509 586 37,000  Level Minneapolis Center
06:16PM 44.3681 -96.1069 81° East 513 590 37,000  Level Minneapolis Center
06:17PM 44.3892 -95.9114 81° East 507 583 37,000 -600 Level Minneapolis Center
06:18PM 44.4131 -95.6786 82° East 504 580 35,800 -2,160 Descending Minneapolis Center
06:19PM 44.4325 -95.4861 82° East 500 575 32,600 -3,120 Descending Minneapolis Center
06:20PM 44.4511 -95.2917 82° East 504 580 29,400 -3,180 Descending Minneapolis Center
06:21PM 44.4733 -95.1019 81° East 495 570 26,100 -3,360 Descending Minneapolis Center
06:22PM 44.5167 -94.9186 72° East 496 571 22,500 -3,300 Descending Minneapolis Center
06:23PM 44.5603 -94.7419 71° East 487 560 19,400 -3,120 Descending Minneapolis Center
06:24PM 44.6025 -94.5550 72° East 468 539 16,100 -3,060 Descending Minneapolis Center
06:25PM 44.6406 -94.3911 72° East 441 507 13,100 -2,400 Descending Minneapolis Center
06:26PM 44.6753 -94.2361 72° East 414 476 11,200 -1,020 Descending Minneapolis Center
06:27PM 44.7153 -94.0581 72° East 398 458 11,100 -120 Descending Minneapolis Center
06:28PM 44.7492 -93.9083 72° East 402 463 11,000 -120 Descending Minneapolis Center
06:29PM 44.7825 -93.7589 73° East 401 461 10,900 -120 Descending Minneapolis Center
06:30PM 44.8142 -93.6147 73° East 384 442 10,800 -480 Descending Minneapolis Center
06:31PM 44.8408 -93.4922 73° East 327 376 10,000 -900 Descending Minneapolis Center
06:32PM 44.8644 -93.3825 73° East 296 341 9,000 -540 Descending Minneapolis Center
06:33PM 44.8031 -93.3156 142° Southeast 261 300 8,900 -60 Descending Minneapolis Center
06:34PM 44.7350 -93.3003 171° South 256 295 8,900 -420 Level Minneapolis Center
06:35PM 44.6761 -93.2853 170° South 222 255 8,100 -540 Descending Minneapolis Center
06:36PM 44.6156 -93.2756 173° South 221 254 7,900 -120 Descending Minneapolis Center
06:37PM 44.5444 -93.2644 174° South 220 253 7,900 -240 Level Minneapolis Center
06:38PM 44.5553 -93.1944 78° East 220 253 7,500 -900 Descending Minneapolis Center
06:39PM 44.6114 -93.1714 16° North 213 245 6,100 -1,380 Descending Minneapolis Center
06:40PM 44.6622 -93.1844 350° North 185 213 4,700 -1,140 Descending Minneapolis Center
06:42PM 44.7117 -93.1964 350° North 181 208 3,800 -900 Descending Minneapolis Center
06:43PM 44.7578 -93.2086 349° North 150 173 2,900 -780 Descending Minneapolis Center
06:44PM 44.7953 -93.2183 350° North 143 165 2,200 -720 Descending Minneapolis Center
06:45PM 44.8336 -93.2281 350° North 140 161 1,500 -720 Descending Minneapolis Center